Time;durP1;ratioP1;P1;durP2;ratioP2;P2;SDS_P1;SDS_P2;PMS_P1;PMS_P2;Temp;Humidity;BMP_temperature;BMP_pressure;BME280_temperature;BME280_humidity;BME280_pressure;Samples;Min_cycle;Max_cycle;Signal;HPM_P1;HPM_P2
2023/07/13 00:00:16;;;;;;;4.23;1.50;;;;;;;15.81;100.00;100694.81;690358;28;896;-63
2023/07/13 00:00:36;;;;;;;4.55;1.20;;;;;;;15.78;100.00;100697.50;689441;28;957;-62
2023/07/13 00:00:57;;;;;;;4.87;1.30;;;;;;;15.79;100.00;100693.97;689955;28;1155;-62
2023/07/13 00:01:17;;;;;;;4.27;1.40;;;;;;;15.76;100.00;100692.28;689731;28;4319;-63
2023/07/13 00:01:38;;;;;;;5.17;1.50;;;;;;;15.77;100.00;100694.03;688691;28;1618;-63
2023/07/13 00:01:58;;;;;;;4.97;1.27;;;;;;;15.73;100.00;100692.38;690276;28;837;-62
2023/07/13 00:02:19;;;;;;;4.80;1.40;;;;;;;15.65;100.00;100695.19;690344;28;1224;-62
2023/07/13 00:02:39;;;;;;;3.40;1.17;;;;;;;15.61;100.00;100693.53;688576;28;1333;-61
2023/07/13 00:03:00;;;;;;;2.77;1.20;;;;;;;15.59;100.00;100692.72;690358;28;861;-63
2023/07/13 00:03:20;;;;;;;16.65;1.90;;;;;;;15.61;100.00;100688.25;689992;28;793;-63
2023/07/13 00:03:41;;;;;;;8.57;1.53;;;;;;;15.62;100.00;100697.91;688804;28;1589;-63
2023/07/13 00:04:01;;;;;;;2.78;1.00;;;;;;;15.61;100.00;100693.53;690066;28;801;-63
2023/07/13 00:04:24;;;;;;;3.13;1.20;;;;;;;15.57;100.00;100691.88;689513;28;4449;-64
2023/07/13 00:04:45;;;;;;;3.08;1.20;;;;;;;15.58;100.00;100695.41;688613;28;1566;-62
2023/07/13 00:05:06;;;;;;;2.70;1.17;;;;;;;15.58;100.00;100693.63;690246;28;788;-62
2023/07/13 00:05:27;;;;;;;2.80;1.10;;;;;;;15.58;100.00;100692.75;690060;28;971;-63
2023/07/13 00:05:57;;;;;;;3.33;1.20;;;;;;;15.53;100.00;100695.50;688784;28;1555;-63
2023/07/13 00:06:19;;;;;;;3.45;1.50;;;;;;;15.56;100.00;100695.44;690317;28;1675;-63
2023/07/13 00:06:40;;;;;;;4.47;1.33;;;;;;;15.54;100.00;100696.38;689074;28;1677;-63
2023/07/13 00:07:00;;;;;;;3.53;1.23;;;;;;;15.50;100.00;100698.22;691045;28;875;-64
2023/07/13 00:07:21;;;;;;;4.80;1.38;;;;;;;15.49;100.00;100699.09;689559;28;4500;-62
2023/07/13 00:07:41;;;;;;;3.67;1.30;;;;;;;15.52;100.00;100696.41;688409;28;1484;-62
2023/07/13 00:08:01;;;;;;;4.07;1.40;;;;;;;15.52;100.00;100700.81;689615;28;936;-63
2023/07/13 00:08:22;;;;;;;2.90;1.20;;;;;;;15.50;100.00;100706.97;690227;28;888;-63
2023/07/13 00:08:43;;;;;;;4.78;1.30;;;;;;;15.49;100.00;100699.09;688937;28;1527;-63
2023/07/13 00:09:03;;;;;;;4.40;1.45;;;;;;;15.50;100.00;100696.44;689767;28;780;-62
2023/07/13 00:09:24;;;;;;;3.17;1.20;;;;;;;15.52;100.00;100700.81;689964;28;1483;-63
2023/07/13 00:09:48;;;;;;;3.67;1.10;;;;;;;15.53;100.00;100697.28;688013;28;1508;-62
2023/07/13 00:10:09;;;;;;;4.35;1.20;;;;;;;15.51;100.00;100694.69;689890;28;937;-63
2023/07/13 00:10:29;;;;;;;5.10;1.20;;;;;;;15.49;100.00;100702.63;689142;28;4723;-63
2023/07/13 00:10:54;;;;;;;6.27;1.43;;;;;;;15.48;100.00;100694.75;689186;28;1250;-63
2023/07/13 00:11:16;;;;;;;5.95;1.60;;;;;;;15.45;100.00;100698.34;687091;28;996;-64
2023/07/13 00:11:37;;;;;;;4.13;1.10;;;;;;;15.42;100.00;100698.38;687056;28;995;-63
2023/07/13 00:11:57;;;;;;;5.03;1.40;;;;;;;15.44;100.00;100696.59;682436;28;992;-62
2023/07/13 00:12:33;;;;;;;3.77;1.30;;;;;;;15.47;100.00;100699.16;684634;28;1103;-63
2023/07/13 00:12:54;;;;;;;4.70;1.38;;;;;;;15.44;100.00;100695.75;683381;28;1484;-62
2023/07/13 00:13:14;;;;;;;2.88;1.20;;;;;;;15.45;100.00;100697.44;686215;28;4523;-64
2023/07/13 00:13:37;;;;;;;4.57;1.20;;;;;;;15.47;100.00;100701.78;687178;28;864;-62
2023/07/13 00:13:58;;;;;;;3.08;1.02;;;;;;;15.45;100.00;100694.81;689693;28;968;-62
2023/07/13 00:14:19;;;;;;;3.87;1.20;;;;;;;15.44;100.00;100701.00;689997;28;864;-62
2023/07/13 00:14:40;;;;;;;3.45;1.30;;;;;;;15.47;100.00;100695.66;689076;28;1548;-63
2023/07/13 00:15:05;;;;;;;3.15;1.20;;;;;;;15.48;100.00;100700.88;690351;28;987;-62
2023/07/13 00:15:26;;;;;;;5.30;1.30;;;;;;;15.47;100.00;100700.94;689621;28;1977;-62
2023/07/13 00:15:47;;;;;;;5.05;1.30;;;;;;;15.44;100.00;100698.38;685939;28;1662;-62
2023/07/13 00:16:09;;;;;;;5.97;1.30;;;;;;;15.47;100.00;100700.94;681543;28;996;-62
2023/07/13 00:16:30;;;;;;;6.15;1.55;;;;;;;15.48;100.00;100697.41;681491;29;4810;-62
2023/07/13 00:16:50;;;;;;;4.40;1.35;;;;;;;15.48;100.00;100694.75;680432;28;1730;-62
2023/07/13 00:17:11;;;;;;;3.17;1.40;;;;;;;15.47;100.00;100695.66;682592;28;908;-62
2023/07/13 00:17:31;;;;;;;3.50;1.20;;;;;;;15.45;100.00;100693.06;684093;28;782;-62
2023/07/13 00:17:54;;;;;;;4.13;1.40;;;;;;;15.43;100.00;100694.84;686531;28;1864;-63
2023/07/13 00:18:14;;;;;;;3.90;1.30;;;;;;;15.44;100.00;100701.00;692250;28;941;-63
2023/07/13 00:18:34;;;;;;;4.03;1.23;;;;;;;15.44;100.00;100701.88;692684;28;714;-62
2023/07/13 00:18:55;;;;;;;4.32;1.10;;;;;;;15.42;100.00;100700.16;691279;28;1576;-63
2023/07/13 00:19:15;;;;;;;4.43;1.30;;;;;;;15.39;100.00;100692.34;692315;28;4442;-62
2023/07/13 00:19:36;;;;;;;2.92;1.20;;;;;;;15.41;100.00;100701.94;691469;28;990;-62
2023/07/13 00:19:56;;;;;;;2.17;1.10;;;;;;;15.40;100.00;100696.72;690309;28;3027;-62
2023/07/13 00:20:17;;;;;;;3.33;1.08;;;;;;;15.43;100.00;100701.91;690149;28;956;-62
2023/07/13 00:20:38;;;;;;;4.18;1.30;;;;;;;15.44;100.00;100698.38;688352;28;1601;-63
2023/07/13 00:21:05;;;;;;;3.20;1.20;;;;;;;15.43;100.00;100694.00;690096;28;920;-62
2023/07/13 00:21:25;;;;;;;3.50;1.25;;;;;;;15.45;100.00;100708.00;689978;28;1133;-62
2023/07/13 00:21:46;;;;;;;3.88;1.13;;;;;;;15.43;100.00;100701.91;688562;28;1459;-63
2023/07/13 00:22:08;;;;;;;3.50;1.20;;;;;;;15.38;100.00;100701.13;691688;28;1356;-63
2023/07/13 00:22:29;;;;;;;5.53;1.40;;;;;;;15.32;100.00;100700.38;689600;28;4718;-63
2023/07/13 00:22:53;;;;;;;4.50;1.20;;;;;;;15.32;100.00;100696.88;688500;28;1453;-62
2023/07/13 00:23:14;;;;;;;4.60;1.30;;;;;;;15.30;100.00;100691.66;689973;28;952;-63
2023/07/13 00:23:36;;;;;;;4.78;1.30;;;;;;;15.32;100.00;100694.25;689781;28;999;-62
2023/07/13 00:23:57;;;;;;;4.28;1.35;;;;;;;15.34;100.00;100700.38;688473;28;1487;-64
2023/07/13 00:24:23;;;;;;;4.65;1.33;;;;;;;15.32;100.00;100703.00;689189;28;901;-63
2023/07/13 00:24:44;;;;;;;3.22;1.20;;;;;;;15.32;100.00;100702.16;687802;28;2217;-63
2023/07/13 00:25:05;;;;;;;3.30;1.20;;;;;;;15.27;100.00;100694.38;689913;28;909;-63
2023/07/13 00:25:27;;;;;;;4.55;1.20;;;;;;;15.24;100.00;100697.06;686517;28;5233;-63
2023/07/13 00:25:50;;;;;;;4.20;1.40;;;;;;;15.23;100.00;100705.00;686442;28;1554;-62
2023/07/13 00:26:12;;;;;;;3.13;1.30;;;;;;;15.24;100.00;100702.31;689749;28;849;-63
2023/07/13 00:26:33;;;;;;;3.35;1.30;;;;;;;15.26;100.00;100703.16;689516;28;1035;-62
2023/07/13 00:26:54;;;;;;;2.30;1.17;;;;;;;15.27;100.00;100704.91;688008;28;1619;-62
2023/07/13 00:27:14;;;;;;;3.13;1.25;;;;;;;15.26;100.00;100692.63;687068;28;1141;-62
2023/07/13 00:27:35;;;;;;;4.87;1.40;;;;;;;15.26;100.00;100697.06;687644;28;861;-62
2023/07/13 00:27:55;;;;;;;4.45;1.60;;;;;;;15.23;100.00;100703.25;685683;28;1077;-63
2023/07/13 00:28:16;;;;;;;3.60;1.40;;;;;;;15.22;100.00;100701.50;686676;28;4606;-63
2023/07/13 00:28:37;;;;;;;3.72;1.40;;;;;;;15.18;100.00;100699.00;687172;28;1370;-62
2023/07/13 00:28:57;;;;;;;2.60;1.40;;;;;;;15.16;100.00;100696.41;688170;28;1598;-63
2023/07/13 00:29:17;;;;;;;3.50;1.33;;;;;;;15.14;100.00;100691.16;692736;28;801;-63
2023/07/13 00:29:38;;;;;;;3.35;1.30;;;;;;;15.11;100.00;100695.63;691482;28;949;-62
2023/07/13 00:29:58;;;;;;;4.57;1.27;;;;;;;15.10;100.00;100696.53;691701;28;1255;-64
2023/07/13 00:30:19;;;;;;;3.60;1.20;;;;;;;15.09;100.00;100695.69;689860;28;1560;-63
2023/07/13 00:30:39;;;;;;;3.97;1.27;;;;;;;15.11;100.00;100698.28;688673;28;1638;-63
2023/07/13 00:31:00;;;;;;;3.93;1.20;;;;;;;15.12;100.00;100694.75;686778;28;1290;-63
2023/07/13 00:31:21;;;;;;;4.57;1.37;;;;;;;15.14;100.00;100695.56;686701;28;4279;-63
2023/07/13 00:31:42;;;;;;;4.85;1.60;;;;;;;15.14;100.00;100692.94;685374;28;1512;-63
2023/07/13 00:32:04;;;;;;;3.67;1.35;;;;;;;15.15;100.00;100692.03;686436;28;1286;-63
2023/07/13 00:32:27;;;;;;;3.90;1.20;;;;;;;15.12;100.00;100700.00;686675;28;1301;-63
2023/07/13 00:32:48;;;;;;;3.85;1.30;;;;;;;15.11;100.00;100693.00;686339;28;1434;-63
2023/07/13 00:33:08;;;;;;;3.10;1.10;;;;;;;15.10;100.00;100693.91;688674;28;1023;-63
2023/07/13 00:33:29;;;;;;;2.90;1.25;;;;;;;15.11;100.00;100695.63;688274;28;1377;-63
2023/07/13 00:33:51;;;;;;;3.85;1.58;;;;;;;15.11;100.00;100693.00;684391;28;1527;-63
2023/07/13 00:34:11;;;;;;;4.30;1.43;;;;;;;15.12;100.00;100692.09;686185;28;4473;-62
2023/07/13 00:34:32;;;;;;;4.00;1.60;;;;;;;15.10;100.00;100693.91;688807;28;968;-62
2023/07/13 00:34:52;;;;;;;4.47;1.15;;;;;;;15.09;100.00;100694.78;686945;28;1541;-63
2023/07/13 00:35:15;;;;;;;4.13;1.30;;;;;;;15.10;100.00;100691.25;688697;28;1318;-63
2023/07/13 00:35:35;;;;;;;2.97;1.17;;;;;;;15.11;100.00;100688.59;683784;28;1471;-63
2023/07/13 00:35:56;;;;;;;3.90;1.20;;;;;;;15.13;100.00;100691.19;686155;28;1097;-63
2023/07/13 00:36:17;;;;;;;4.50;1.35;;;;;;;15.12;100.00;100694.75;686830;28;766;-62
2023/07/13 00:36:38;;;;;;;3.97;1.27;;;;;;;15.12;100.00;100694.75;684234;28;1348;-62
2023/07/13 00:36:59;;;;;;;4.18;1.40;;;;;;;15.11;100.00;100687.72;684454;28;1401;-62
2023/07/13 00:37:19;;;;;;;3.42;1.25;;;;;;;15.11;100.00;100698.28;686562;28;4380;-63
2023/07/13 00:37:40;;;;;;;4.00;1.20;;;;;;;15.07;100.00;100699.25;685945;28;2335;-63
2023/07/13 00:38:01;;;;;;;4.32;1.30;;;;;;;15.07;100.00;100696.59;687053;28;801;-62
2023/07/13 00:38:22;;;;;;;3.33;1.30;;;;;;;15.08;100.00;100696.56;687063;28;1353;-62
2023/07/13 00:38:43;;;;;;;4.32;1.42;;;;;;;15.07;100.00;100694.81;688186;28;1491;-62
2023/07/13 00:39:03;;;;;;;4.78;1.42;;;;;;;15.09;100.00;100700.94;686941;28;901;-62
2023/07/13 00:39:25;;;;;;;3.80;1.40;;;;;;;15.10;100.00;100701.78;686767;28;1450;-62
2023/07/13 00:39:45;;;;;;;4.40;1.30;;;;;;;15.11;100.00;100699.13;685726;28;1588;-63
2023/07/13 00:40:07;;;;;;;4.70;1.50;;;;;;;15.12;100.00;100697.38;684276;28;1133;-63
2023/07/13 00:40:28;;;;;;;3.17;1.20;;;;;;;15.11;100.00;100698.28;684399;28;4579;-63
2023/07/13 00:40:48;;;;;;;3.10;1.15;;;;;;;15.09;100.00;100692.16;686398;28;1663;-62
2023/07/13 00:41:10;;;;;;;3.10;1.40;;;;;;;15.08;100.00;100698.34;689619;28;837;-63
2023/07/13 00:41:31;;;;;;;3.55;1.35;;;;;;;15.05;100.00;100698.38;689464;28;912;-62
2023/07/13 00:41:52;;;;;;;5.07;1.40;;;;;;;15.01;100.00;100697.63;688214;28;1535;-63
2023/07/13 00:42:13;;;;;;;5.88;1.40;;;;;;;15.02;100.00;100694.06;689051;28;5303;-62
2023/07/13 00:42:34;;;;;;;4.67;1.30;;;;;;;15.04;100.00;100691.41;689816;28;908;-62
2023/07/13 00:42:58;;;;;;;4.95;1.50;;;;;;;15.08;100.00;100690.44;687246;28;1616;-62
2023/07/13 00:43:21;;;;;;;3.67;1.25;;;;;;;15.08;100.00;100688.66;683785;28;4473;-62
2023/07/13 00:43:41;;;;;;;3.65;1.20;;;;;;;15.11;100.00;100698.28;681767;28;1671;-62
2023/07/13 00:44:04;;;;;;;3.53;1.20;;;;;;;15.10;100.00;100696.53;684311;28;924;-63
2023/07/13 00:44:26;;;;;;;3.55;1.23;;;;;;;15.08;100.00;100687.81;684540;28;1399;-62
2023/07/13 00:45:20;;;;;;;4.15;1.40;;;;;;;15.03;100.00;100698.44;682699;28;1494;-63
2023/07/13 00:45:43;;;;;;;3.63;1.20;;;;;;;15.05;100.00;100690.50;682779;28;1710;-62
2023/07/13 00:46:15;;;;;;;3.25;1.30;;;;;;;15.04;100.00;100694.06;681695;29;996;-63
2023/07/13 00:46:36;;;;;;;3.38;1.30;;;;;;;15.03;100.00;100697.56;684221;28;4976;-63
2023/07/13 00:46:58;;;;;;;2.58;1.20;;;;;;;15.03;100.00;100690.53;683492;28;2101;-64
2023/07/13 00:47:18;;;;;;;2.65;1.20;;;;;;;15.02;100.00;100694.06;682875;28;1181;-64
2023/07/13 00:47:40;;;;;;;4.25;1.40;;;;;;;15.01;100.00;100697.63;681515;28;1833;-64
2023/07/13 00:48:01;;;;;;;4.85;1.50;;;;;;;15.00;100.00;100690.59;682924;28;1311;-62
2023/07/13 00:48:25;;;;;;;3.60;1.30;;;;;;;15.01;100.00;100694.09;685106;28;1102;-63
2023/07/13 00:48:48;;;;;;;3.80;1.30;;;;;;;15.01;100.00;100694.09;684536;28;2193;-63
2023/07/13 00:49:14;;;;;;;3.72;1.20;;;;;;;14.96;100.00;100697.69;688302;28;932;-62
2023/07/13 00:49:36;;;;;;;3.58;1.40;;;;;;;14.97;100.00;100696.81;688399;28;6292;-62
2023/07/13 00:49:57;;;;;;;4.07;1.40;;;;;;;14.96;100.00;100702.09;683722;28;1474;-62
2023/07/13 00:50:21;;;;;;;3.83;1.38;;;;;;;14.96;100.00;100695.06;684704;28;1061;-63
2023/07/13 00:50:44;;;;;;;2.58;1.40;;;;;;;14.97;100.00;100699.44;685388;28;1572;-63
2023/07/13 00:51:05;;;;;;;2.33;1.10;;;;;;;14.97;100.00;100696.81;686808;28;1686;-63
2023/07/13 00:51:37;;;;;;;3.33;1.25;;;;;;;14.98;100.00;100698.53;688069;28;802;-62
2023/07/13 00:52:09;;;;;;;3.20;1.40;;;;;;;14.98;100.00;100697.66;688348;28;1495;-63
2023/07/13 00:52:31;;;;;;;3.20;1.20;;;;;;;14.97;100.00;100694.19;686703;28;5789;-63
2023/07/13 00:52:55;;;;;;;3.28;1.40;;;;;;;14.93;100.00;100697.78;685789;28;1552;-62
2023/07/13 00:53:16;;;;;;;3.97;1.52;;;;;;;14.91;100.00;100694.31;685876;28;841;-63
2023/07/13 00:53:36;;;;;;;3.15;1.30;;;;;;;14.91;100.00;100694.31;683780;28;1402;-62
2023/07/13 00:54:03;;;;;;;3.73;1.30;;;;;;;14.91;100.00;100691.69;684555;28;1584;-62
2023/07/13 00:54:31;;;;;;;4.65;1.50;;;;;;;14.91;100.00;100696.97;684812;28;1345;-63
2023/07/13 00:54:52;;;;;;;3.65;1.50;;;;;;;14.88;100.00;100704.91;683009;28;1694;-63
2023/07/13 00:55:16;;;;;;;3.55;1.40;;;;;;;14.86;100.00;100701.44;679855;28;4537;-62
2023/07/13 00:55:36;;;;;;;4.15;1.30;;;;;;;14.82;100.00;100692.75;679708;29;829;-63
2023/07/13 00:55:57;;;;;;;3.50;1.40;;;;;;;14.80;100.00;100696.31;681622;28;1510;-62
2023/07/13 00:56:18;;;;;;;2.85;1.30;;;;;;;14.77;100.00;100693.75;683252;28;1320;-63
2023/07/13 00:56:41;;;;;;;3.50;1.30;;;;;;;14.77;100.00;100688.47;685213;28;835;-64
2023/07/13 00:57:05;;;;;;;3.85;1.45;;;;;;;14.79;100.00;100697.22;687499;28;968;-62
2023/07/13 00:57:26;;;;;;;4.70;1.50;;;;;;;14.80;100.00;100694.56;688901;28;1353;-62
2023/07/13 00:57:47;;;;;;;3.60;1.50;;;;;;;14.79;100.00;100698.06;688296;28;1432;-62
2023/07/13 00:58:07;;;;;;;4.30;1.40;;;;;;;14.80;100.00;100697.19;688412;28;857;-62
2023/07/13 00:58:28;;;;;;;3.25;1.40;;;;;;;14.84;100.00;100694.47;686350;28;4293;-62
2023/07/13 00:58:50;;;;;;;5.05;1.70;;;;;;;14.85;100.00;100689.19;685914;28;1540;-62
2023/07/13 00:59:13;;;;;;;3.85;1.30;;;;;;;14.87;100.00;100699.66;687674;28;1306;-62
2023/07/13 00:59:36;;;;;;;3.67;1.50;;;;;;;14.85;100.00;100694.44;686294;28;860;-63
2023/07/13 01:00:02;;;;;;;4.85;1.52;;;;;;;14.82;100.00;100698.00;682936;28;1747;-61
2023/07/13 01:00:26;;;;;;;4.05;1.30;;;;;;;14.82;100.00;100690.09;684051;28;1421;-61
2023/07/13 01:00:48;;;;;;;4.65;1.33;;;;;;;14.77;100.00;100692.00;686657;28;1649;-61
2023/07/13 01:01:09;;;;;;;4.78;2.00;;;;;;;14.78;100.00;100693.72;686411;28;1314;-61
2023/07/13 01:01:29;;;;;;;4.22;2.33;;;;;;;14.78;100.00;100693.72;683873;28;4802;-62
2023/07/13 01:01:50;;;;;;;4.10;1.60;;;;;;;14.76;100.00;100692.00;684468;28;1623;-61
2023/07/13 01:02:11;;;;;;;4.72;1.35;;;;;;;14.75;100.00;100685.88;684441;28;816;-62
2023/07/13 01:02:32;;;;;;;4.07;1.40;;;;;;;14.75;100.00;100691.16;683212;28;1103;-61
2023/07/13 01:02:53;;;;;;;5.20;1.45;;;;;;;14.72;100.00;100687.72;680839;28;1520;-62
2023/07/13 01:03:13;;;;;;;3.20;1.40;;;;;;;14.73;100.00;100689.44;684538;28;841;-62
2023/07/13 01:03:35;;;;;;;3.75;1.33;;;;;;;14.74;100.00;100685.91;682826;28;1351;-62
2023/07/13 01:03:56;;;;;;;3.10;1.35;;;;;;;14.69;100.00;100686.03;680020;28;1427;-61
2023/07/13 01:04:18;;;;;;;4.53;1.40;;;;;;;14.68;100.00;100691.34;679642;28;4384;-61
2023/07/13 01:04:39;;;;;;;3.70;1.30;;;;;;;14.69;100.00;100700.94;678687;29;1373;-61
2023/07/13 01:05:01;;;;;;;3.40;1.27;;;;;;;14.67;100.00;100693.06;679230;29;1304;-62
2023/07/13 01:05:22;;;;;;;4.18;1.48;;;;;;;14.67;100.00;100689.59;681735;29;1231;-61
2023/07/13 01:05:43;;;;;;;4.07;1.48;;;;;;;14.64;100.00;100686.13;680417;28;1665;-61
2023/07/13 01:06:04;;;;;;;3.17;1.50;;;;;;;14.63;100.00;100687.03;686436;28;1440;-61
2023/07/13 01:06:25;;;;;;;3.92;1.35;;;;;;;14.62;100.00;100687.94;682042;28;1327;-61
2023/07/13 01:06:46;;;;;;;3.83;1.38;;;;;;;14.64;100.00;100690.53;681478;28;1975;-62
2023/07/13 01:07:07;;;;;;;3.97;1.40;;;;;;;14.66;100.00;100690.47;686029;28;1410;-62
2023/07/13 01:07:27;;;;;;;4.50;1.40;;;;;;;14.69;100.00;100685.16;684178;28;4578;-62
2023/07/13 01:07:52;;;;;;;3.92;1.70;;;;;;;14.69;100.00;100687.78;682899;28;1649;-61
2023/07/13 01:08:13;;;;;;;4.93;1.60;;;;;;;14.68;100.00;100683.44;681442;29;881;-62
2023/07/13 01:08:33;;;;;;;4.95;1.40;;;;;;;14.68;100.00;100691.34;682419;28;862;-62
2023/07/13 01:08:57;;;;;;;4.93;1.65;;;;;;;14.68;100.00;100681.66;683627;28;1503;-62
2023/07/13 01:09:20;;;;;;;3.67;1.55;;;;;;;14.69;100.00;100683.41;686461;28;988;-61
2023/07/13 01:09:41;;;;;;;3.38;1.50;;;;;;;14.69;100.00;100685.16;686334;28;1637;-62
2023/07/13 01:10:02;;;;;;;3.50;1.30;;;;;;;14.66;100.00;100679.97;689424;28;1187;-62
2023/07/13 01:10:25;;;;;;;4.32;1.48;;;;;;;14.64;100.00;100683.47;688345;28;4255;-61
2023/07/13 01:10:57;;;;;;;4.07;1.30;;;;;;;14.65;100.00;100684.38;688994;28;1509;-62
2023/07/13 01:11:21;;;;;;;5.63;1.45;;;;;;;14.66;100.00;100680.81;689908;28;813;-62
2023/07/13 01:11:42;;;;;;;4.15;1.50;;;;;;;14.66;100.00;100686.06;685488;28;1505;-62
2023/07/13 01:12:03;;;;;;;3.97;1.42;;;;;;;14.66;100.00;100679.97;687052;28;1401;-62
2023/07/13 01:12:24;;;;;;;4.22;1.52;;;;;;;14.63;100.00;100681.78;687935;28;1407;-62
2023/07/13 01:12:45;;;;;;;3.37;1.37;;;;;;;14.63;100.00;100679.13;687108;28;1508;-61
2023/07/13 01:13:10;;;;;;;4.70;1.33;;;;;;;14.66;100.00;100686.06;684980;28;778;-62
2023/07/13 01:13:31;;;;;;;4.55;1.42;;;;;;;14.66;100.00;100678.19;683015;28;4740;-62
2023/07/13 01:13:51;;;;;;;4.33;1.40;;;;;;;14.64;100.00;100677.38;684005;28;936;-61
2023/07/13 01:14:12;;;;;;;4.80;1.50;;;;;;;14.64;100.00;100678.22;680643;28;1108;-64
2023/07/13 01:14:32;;;;;;;4.80;1.70;;;;;;;14.64;100.00;100678.22;680321;28;1064;-64
2023/07/13 01:15:00;;;;;;;3.80;1.60;;;;;;;14.62;100.00;100679.13;680222;28;1621;-65
2023/07/13 01:15:41;;;;;;;3.47;1.40;;;;;;;14.61;100.00;100686.16;684735;28;1918;-63
2023/07/13 01:16:13;;;;;;;5.13;1.40;;;;;;;14.60;100.00;100684.41;682746;28;3393;-61
2023/07/13 01:16:36;;;;;;;4.63;1.40;;;;;;;14.63;100.00;100681.78;685218;28;6438;-62
2023/07/13 01:16:59;;;;;;;4.05;1.30;;;;;;;14.63;100.00;100684.41;688376;28;1650;-62
2023/07/13 01:17:20;;;;;;;3.80;1.30;;;;;;;14.62;100.00;100685.28;689354;28;1007;-62
2023/07/13 01:17:41;;;;;;;4.47;1.40;;;;;;;14.59;100.00;100684.44;688448;28;1551;-62
2023/07/13 01:18:02;;;;;;;4.28;1.35;;;;;;;14.53;100.00;100688.06;689851;28;900;-61
2023/07/13 01:18:28;;;;;;;4.82;1.60;;;;;;;14.50;100.00;100680.25;686412;28;2066;-61
2023/07/13 01:18:49;;;;;;;3.90;1.50;;;;;;;14.51;100.00;100683.75;685900;28;1487;-63
2023/07/13 01:19:39;;;;;;;4.43;1.40;;;;;;;14.52;100.00;100683.69;686769;28;4397;-61
2023/07/13 01:19:59;;;;;;;4.43;1.65;;;;;;;14.53;100.00;100685.44;688485;28;1440;-62
2023/07/13 01:20:20;;;;;;;4.38;1.60;;;;;;;14.51;100.00;100687.25;689754;28;1551;-62
2023/07/13 01:20:52;;;;;;;4.22;1.58;;;;;;;14.48;100.00;100682.91;687606;28;1756;-62
2023/07/13 01:21:13;;;;;;;3.83;1.30;;;;;;;14.50;100.00;100684.66;689865;28;1050;-63
2023/07/13 01:21:34;;;;;;;3.97;1.30;;;;;;;14.49;100.00;100678.50;689519;28;950;-62
2023/07/13 01:21:54;;;;;;;3.50;1.30;;;;;;;14.48;100.00;100684.66;688132;28;1453;-62
2023/07/13 01:22:18;;;;;;;3.23;1.37;;;;;;;14.47;100.00;100680.31;686424;28;4285;-62
2023/07/13 01:22:38;;;;;;;3.80;1.63;;;;;;;14.47;100.00;100694.34;686861;28;842;-62
2023/07/13 01:22:59;;;;;;;4.93;1.60;;;;;;;14.45;100.00;100682.09;687740;28;1539;-62
2023/07/13 01:23:20;;;;;;;4.00;1.50;;;;;;;14.43;100.00;100689.19;686642;28;1230;-62
2023/07/13 01:23:44;;;;;;;4.93;1.63;;;;;;;14.42;100.00;100690.06;685592;28;1543;-62
2023/07/13 01:24:04;;;;;;;4.90;1.45;;;;;;;14.42;100.00;100690.06;688667;28;971;-61
2023/07/13 01:24:25;;;;;;;4.72;1.38;;;;;;;14.42;100.00;100687.44;687765;28;944;-62
2023/07/13 01:24:48;;;;;;;3.33;1.30;;;;;;;14.41;100.00;100688.31;687008;28;1449;-62
2023/07/13 01:25:09;;;;;;;3.97;1.40;;;;;;;14.39;100.00;100690.13;684965;28;4355;-60
2023/07/13 01:25:30;;;;;;;4.47;1.47;;;;;;;14.38;100.00;100688.41;682546;28;1253;-62
2023/07/13 01:25:52;;;;;;;4.65;1.60;;;;;;;14.38;100.00;100691.03;678324;28;1731;-63
2023/07/13 01:26:12;;;;;;;4.47;1.33;;;;;;;14.36;100.00;100685.78;682163;28;854;-62
2023/07/13 01:26:33;;;;;;;4.03;1.38;;;;;;;14.35;100.00;100688.47;683122;28;1126;-62
2023/07/13 01:26:53;;;;;;;5.07;1.50;;;;;;;14.30;100.00;100685.91;679699;28;1442;-63
2023/07/13 01:27:20;;;;;;;4.27;1.33;;;;;;;14.26;100.00;100682.50;683691;28;872;-62
2023/07/13 01:27:41;;;;;;;4.45;1.90;;;;;;;14.28;100.00;100685.09;688403;28;981;-62
2023/07/13 01:28:03;;;;;;;3.13;1.40;;;;;;;14.30;100.00;100693.78;688397;28;1016;-63
2023/07/13 01:28:29;;;;;;;4.00;1.40;;;;;;;14.29;100.00;100692.94;689288;28;4278;-62
2023/07/13 01:28:50;;;;;;;3.80;1.60;;;;;;;14.29;100.00;100684.19;687105;28;1678;-63
2023/07/13 01:29:10;;;;;;;3.28;1.42;;;;;;;14.27;100.00;100689.47;689755;28;1327;-62
2023/07/13 01:29:36;;;;;;;3.95;1.40;;;;;;;14.27;100.00;100686.84;689761;28;1359;-62
2023/07/13 01:30:03;;;;;;;3.92;1.38;;;;;;;14.26;100.00;100687.75;687641;28;1464;-62
2023/07/13 01:30:23;;;;;;;2.55;1.23;;;;;;;14.30;100.00;100688.53;689768;28;809;-62
2023/07/13 01:30:45;;;;;;;4.03;1.67;;;;;;;14.29;100.00;100690.31;688287;28;1455;-62
2023/07/13 01:31:06;;;;;;;3.95;1.80;;;;;;;14.27;100.00;100689.47;688687;28;798;-62
2023/07/13 01:31:26;;;;;;;3.08;1.30;;;;;;;14.23;100.00;100687.81;685692;28;4491;-63
2023/07/13 01:31:47;;;;;;;4.23;1.50;;;;;;;14.20;100.00;100687.84;685609;28;1545;-62
2023/07/13 01:32:14;;;;;;;4.57;1.40;;;;;;;14.19;100.00;100691.41;687379;28;868;-62
2023/07/13 01:32:36;;;;;;;3.47;1.40;;;;;;;14.16;100.00;100691.44;689870;28;829;-62
2023/07/13 01:32:58;;;;;;;2.72;1.23;;;;;;;14.18;100.00;100683.50;688148;28;1693;-62
2023/07/13 01:33:20;;;;;;;3.10;1.40;;;;;;;14.18;100.00;100687.03;688813;28;1203;-62
2023/07/13 01:33:41;;;;;;;4.68;1.80;;;;;;;14.19;100.00;100693.13;689415;28;907;-62
2023/07/13 01:34:02;;;;;;;4.10;1.50;;;;;;;14.20;100.00;100693.09;687789;28;889;-62
2023/07/13 01:34:23;;;;;;;3.92;1.40;;;;;;;14.19;100.00;100687.88;689173;28;4597;-62
2023/07/13 01:34:44;;;;;;;3.92;1.38;;;;;;;14.15;100.00;100689.72;688315;28;1606;-62
2023/07/13 01:35:04;;;;;;;4.87;1.43;;;;;;;14.11;100.00;100688.03;687743;28;1303;-62
2023/07/13 01:35:26;;;;;;;4.30;1.30;;;;;;;14.10;100.00;100688.94;688880;28;1915;-62
2023/07/13 01:35:47;;;;;;;3.92;1.40;;;;;;;14.09;100.00;100684.56;686007;28;2049;-62
2023/07/13 01:36:11;;;;;;;5.32;1.73;;;;;;;14.10;100.00;100686.31;688002;28;1363;-62
2023/07/13 01:36:32;;;;;;;4.95;1.55;;;;;;;14.12;100.00;100689.75;689365;28;1348;-62
2023/07/13 01:36:53;;;;;;;4.55;1.55;;;;;;;14.13;100.00;100688.88;685801;28;1562;-62
2023/07/13 01:37:14;;;;;;;4.85;1.50;;;;;;;14.13;100.00;100688.88;682824;28;4487;-62
2023/07/13 01:37:35;;;;;;;4.67;1.57;;;;;;;14.13;100.00;100681.84;684333;28;1114;-62
2023/07/13 01:37:56;;;;;;;5.47;1.52;;;;;;;14.14;100.00;100687.97;682863;28;1554;-62
2023/07/13 01:38:20;;;;;;;3.75;1.50;;;;;;;14.11;100.00;100690.69;681187;28;1262;-63
2023/07/13 01:38:40;;;;;;;4.22;1.50;;;;;;;14.09;100.00;100687.19;681860;28;991;-62
2023/07/13 01:39:03;;;;;;;3.50;1.50;;;;;;;14.09;100.00;100695.94;683879;28;1235;-63
2023/07/13 01:39:23;;;;;;;3.13;1.42;;;;;;;14.09;100.00;100689.81;683747;28;805;-62
2023/07/13 01:39:44;;;;;;;4.33;1.80;;;;;;;14.11;100.00;100691.53;680039;28;1957;-62
2023/07/13 01:40:05;;;;;;;3.88;1.50;;;;;;;14.08;100.00;100688.97;678839;29;1255;-62
2023/07/13 01:40:25;;;;;;;5.45;1.60;;;;;;;14.06;100.00;100688.13;681291;28;4449;-62
2023/07/13 01:40:46;;;;;;;4.03;1.70;;;;;;;14.08;100.00;100688.06;683165;28;1457;-62
2023/07/13 01:41:07;;;;;;;4.75;1.73;;;;;;;14.08;100.00;100694.22;684409;28;1386;-62
2023/07/13 01:41:27;;;;;;;5.18;1.80;;;;;;;14.09;100.00;100692.44;681352;28;834;-62
2023/07/13 01:41:48;;;;;;;5.33;1.50;;;;;;;14.09;100.00;100692.44;678236;29;1590;-62
2023/07/13 01:42:08;;;;;;;3.30;1.38;;;;;;;14.08;100.00;100698.59;681864;28;949;-62
2023/07/13 01:42:29;;;;;;;3.70;1.30;;;;;;;14.04;100.00;100687.28;684601;28;849;-62
2023/07/13 01:42:49;;;;;;;4.43;1.40;;;;;;;14.04;100.00;100692.56;683159;28;1457;-62
2023/07/13 01:43:10;;;;;;;4.63;1.50;;;;;;;14.05;100.00;100694.28;683939;28;4416;-62
2023/07/13 01:43:30;;;;;;;3.13;1.30;;;;;;;14.04;100.00;100689.03;686750;28;897;-62
2023/07/13 01:43:51;;;;;;;3.38;1.40;;;;;;;14.03;100.00;100692.59;688425;28;1515;-62
2023/07/13 01:44:11;;;;;;;3.40;1.50;;;;;;;13.99;100.00;100690.91;688768;28;1479;-62
2023/07/13 01:44:32;;;;;;;3.63;1.50;;;;;;;13.99;100.00;100685.66;689566;28;944;-61